RYR61LJ LEPA-LEZL
Flight info
| Callsign | RYR61LJ |
|---|---|
| Flight time | 1h 15m |
| Altitude | 36000 |
| Route | EPAMA N733 VLC M985 YES N747 BLN |
| Aircraft | B738/M-SDE3FGILRWY/SB1 |
Departure
| Time | 2026-04-23 00:07 |
|---|---|
| Airport | Palma de Mallorca Airport (LEPA) |
Arrival
| Time | 2026-04-23 01:23 |
|---|---|
| Airport | Seville Airport (LEZL) |
| Time | Latitude | Longitude | Altitude | Speed | Heading |
|---|---|---|---|---|---|
| 2026-04-22 23:41 | 39.54798 | 2.73596 | 36 ft | 0 kts | 58° |
| 2026-04-22 23:58 | 39.54797 | 2.73594 | 37 ft | 2 kts | 58° |
| 2026-04-22 23:58 | 39.54785 | 2.73564 | 36 ft | 4 kts | 71° |
| 2026-04-22 23:59 | 39.54782 | 2.73532 | 35 ft | 4 kts | 110° |
| 2026-04-22 23:59 | 39.54790 | 2.73516 | 35 ft | 0 kts | 149° |
| 2026-04-23 00:02 | 39.54789 | 2.73517 | 37 ft | 1 kts | 149° |
| 2026-04-23 00:03 | 39.54754 | 2.73544 | 37 ft | 9 kts | 149° |
| 2026-04-23 00:03 | 39.54699 | 2.73586 | 37 ft | 9 kts | 149° |
| 2026-04-23 00:03 | 39.54642 | 2.73612 | 37 ft | 9 kts | 194° |
| 2026-04-23 00:03 | 39.54601 | 2.73548 | 37 ft | 11 kts | 238° |
| 2026-04-23 00:04 | 39.54549 | 2.73439 | 37 ft | 17 kts | 239° |
| 2026-04-23 00:04 | 39.54484 | 2.73299 | 37 ft | 18 kts | 237° |
| 2026-04-23 00:04 | 39.54432 | 2.73209 | 37 ft | 10 kts | 211° |
| 2026-04-23 00:04 | 39.54367 | 2.73214 | 37 ft | 10 kts | 202° |
| 2026-04-23 00:05 | 39.54318 | 2.73163 | 37 ft | 8 kts | 193° |
| 2026-04-23 00:05 | 39.54292 | 2.73173 | 37 ft | 0 kts | 146° |
| 2026-04-23 00:05 | 39.54282 | 2.73183 | 36 ft | 7 kts | 137° |
| 2026-04-23 00:06 | 39.54267 | 2.73266 | 37 ft | 10 kts | 89° |
| 2026-04-23 00:06 | 39.54268 | 2.73357 | 37 ft | 10 kts | 89° |
| 2026-04-23 00:06 | 39.54268 | 2.73446 | 37 ft | 10 kts | 91° |
| 2026-04-23 00:06 | 39.54294 | 2.73523 | 37 ft | 9 kts | 57° |
| 2026-04-23 00:07 | 39.54393 | 2.73734 | 37 ft | 61 kts | 59° |
| 2026-04-23 00:07 | 39.54742 | 2.74474 | 37 ft | 129 kts | 58° |
| 2026-04-23 00:07 | 39.55305 | 2.75657 | 170 ft | 172 kts | 59° |
| 2026-04-23 00:07 | 39.55934 | 2.77013 | 890 ft | 178 kts | 59° |
| 2026-04-23 00:08 | 39.56571 | 2.78404 | 1731 ft | 178 kts | 60° |
| 2026-04-23 00:08 | 39.57202 | 2.79787 | 2361 ft | 193 kts | 60° |
| 2026-04-23 00:08 | 39.57918 | 2.81360 | 2766 ft | 206 kts | 60° |
| 2026-04-23 00:08 | 39.58651 | 2.82958 | 3381 ft | 207 kts | 60° |
| 2026-04-23 00:09 | 39.59442 | 2.84533 | 3963 ft | 210 kts | 44° |
| 2026-04-23 00:09 | 39.60725 | 2.85284 | 4672 ft | 207 kts | 0° |
| 2026-04-23 00:09 | 39.62095 | 2.84837 | 5325 ft | 204 kts | 328° |
| 2026-04-23 00:09 | 39.63136 | 2.83563 | 5731 ft | 216 kts | 298° |
| 2026-04-23 00:10 | 39.63590 | 2.81625 | 5922 ft | 237 kts | 275° |
| 2026-04-23 00:10 | 39.63620 | 2.79368 | 6148 ft | 262 kts | 268° |
| 2026-04-23 00:10 | 39.63534 | 2.76978 | 6830 ft | 268 kts | 267° |
| 2026-04-23 00:10 | 39.63428 | 2.74565 | 7616 ft | 268 kts | 267° |
| 2026-04-23 00:11 | 39.63322 | 2.72148 | 8425 ft | 269 kts | 267° |
| 2026-04-23 00:11 | 39.63222 | 2.69719 | 9248 ft | 270 kts | 268° |
| 2026-04-23 00:11 | 39.63126 | 2.67281 | 10037 ft | 272 kts | 268° |
| 2026-04-23 00:11 | 39.63032 | 2.64804 | 10578 ft | 283 kts | 268° |
| 2026-04-23 00:12 | 39.62936 | 2.62150 | 10739 ft | 306 kts | 268° |
| 2026-04-23 00:12 | 39.62836 | 2.59322 | 11131 ft | 319 kts | 268° |
| 2026-04-23 00:12 | 39.62735 | 2.56424 | 11793 ft | 323 kts | 268° |
| 2026-04-23 00:12 | 39.62634 | 2.53511 | 12582 ft | 324 kts | 268° |
| 2026-04-23 00:13 | 39.62533 | 2.50583 | 13343 ft | 327 kts | 268° |
| 2026-04-23 00:13 | 39.62433 | 2.47624 | 14044 ft | 330 kts | 269° |
| 2026-04-23 00:13 | 39.62333 | 2.44630 | 14665 ft | 336 kts | 268° |
| 2026-04-23 00:13 | 39.62227 | 2.41591 | 15373 ft | 339 kts | 269° |
| 2026-04-23 00:14 | 39.62157 | 2.39559 | 15865 ft | 341 kts | 269° |
| 2026-04-23 00:14 | 39.62048 | 2.36463 | 16527 ft | 346 kts | 269° |
| 2026-04-23 00:14 | 39.61937 | 2.33321 | 17169 ft | 351 kts | 269° |
| 2026-04-23 00:14 | 39.61824 | 2.30133 | 17825 ft | 356 kts | 269° |
| 2026-04-23 00:15 | 39.61709 | 2.26904 | 18441 ft | 361 kts | 269° |
| 2026-04-23 00:15 | 39.61591 | 2.23628 | 19012 ft | 365 kts | 269° |
| 2026-04-23 00:15 | 39.61472 | 2.20330 | 19631 ft | 367 kts | 269° |
| 2026-04-23 00:15 | 39.61350 | 2.17007 | 20233 ft | 370 kts | 269° |
| 2026-04-23 00:16 | 39.61227 | 2.13657 | 20809 ft | 374 kts | 269° |
| 2026-04-23 00:16 | 39.61102 | 2.10277 | 21373 ft | 377 kts | 269° |
| 2026-04-23 00:16 | 39.60974 | 2.06865 | 21929 ft | 381 kts | 269° |
| 2026-04-23 00:16 | 39.60845 | 2.03421 | 22491 ft | 384 kts | 269° |
| 2026-04-23 00:17 | 39.60713 | 1.99953 | 23037 ft | 387 kts | 269° |
| 2026-04-23 00:17 | 39.60579 | 1.96452 | 23573 ft | 390 kts | 269° |
| 2026-04-23 00:17 | 39.60443 | 1.92924 | 24027 ft | 393 kts | 269° |
| 2026-04-23 00:17 | 39.60305 | 1.89369 | 24475 ft | 396 kts | 269° |
| 2026-04-23 00:18 | 39.60165 | 1.85799 | 24941 ft | 398 kts | 269° |
| 2026-04-23 00:18 | 39.60024 | 1.82207 | 25363 ft | 401 kts | 269° |
| 2026-04-23 00:18 | 39.59879 | 1.78585 | 25780 ft | 403 kts | 269° |
| 2026-04-23 00:18 | 39.59733 | 1.74943 | 26197 ft | 406 kts | 269° |
| 2026-04-23 00:19 | 39.59584 | 1.71257 | 26615 ft | 409 kts | 269° |
| 2026-04-23 00:19 | 39.59435 | 1.67585 | 27020 ft | 411 kts | 269° |
| 2026-04-23 00:19 | 39.59282 | 1.63873 | 27415 ft | 414 kts | 269° |
| 2026-04-23 00:19 | 39.59125 | 1.60135 | 27805 ft | 416 kts | 269° |
| 2026-04-23 00:20 | 39.58966 | 1.56376 | 28192 ft | 419 kts | 269° |
| 2026-04-23 00:20 | 39.58804 | 1.52594 | 28549 ft | 421 kts | 268° |
| 2026-04-23 00:20 | 39.58642 | 1.48792 | 28920 ft | 424 kts | 268° |
| 2026-04-23 00:20 | 39.58478 | 1.44966 | 29280 ft | 426 kts | 268° |
| 2026-04-23 00:21 | 39.58312 | 1.41122 | 29634 ft | 429 kts | 268° |
| 2026-04-23 00:21 | 39.58145 | 1.37250 | 29974 ft | 431 kts | 268° |
| 2026-04-23 00:21 | 39.57977 | 1.33415 | 30281 ft | 433 kts | 268° |
| 2026-04-23 00:21 | 39.57806 | 1.29519 | 30663 ft | 432 kts | 268° |
| 2026-04-23 00:22 | 39.57631 | 1.25592 | 31160 ft | 429 kts | 268° |
| 2026-04-23 00:22 | 39.57462 | 1.21803 | 31647 ft | 425 kts | 268° |
| 2026-04-23 00:22 | 39.57290 | 1.17980 | 32038 ft | 424 kts | 268° |
| 2026-04-23 00:22 | 39.57117 | 1.14163 | 32360 ft | 425 kts | 268° |
| 2026-04-23 00:23 | 39.56943 | 1.10351 | 32811 ft | 422 kts | 268° |
| 2026-04-23 00:23 | 39.56770 | 1.06571 | 33292 ft | 419 kts | 268° |
| 2026-04-23 00:23 | 39.56596 | 1.02805 | 33665 ft | 418 kts | 268° |
| 2026-04-23 00:23 | 39.56421 | 0.99044 | 33979 ft | 418 kts | 268° |
| 2026-04-23 00:24 | 39.56244 | 0.95284 | 34296 ft | 418 kts | 268° |
| 2026-04-23 00:24 | 39.56067 | 0.91532 | 34629 ft | 416 kts | 268° |
| 2026-04-23 00:24 | 39.55890 | 0.87794 | 34932 ft | 415 kts | 268° |
| 2026-04-23 00:24 | 39.55711 | 0.84059 | 35203 ft | 415 kts | 268° |
| 2026-04-23 00:25 | 39.55531 | 0.80320 | 35459 ft | 416 kts | 268° |
| 2026-04-23 00:25 | 39.55350 | 0.76584 | 35742 ft | 415 kts | 268° |
| 2026-04-23 00:25 | 39.55168 | 0.72866 | 36060 ft | 413 kts | 268° |
| 2026-04-23 00:26 | 39.54799 | 0.65354 | 36104 ft | 422 kts | 268° |
| 2026-04-23 00:26 | 39.54416 | 0.57679 | 36111 ft | 431 kts | 268° |
| 2026-04-23 00:27 | 39.54022 | 0.49918 | 36094 ft | 432 kts | 267° |
| 2026-04-23 00:27 | 39.53622 | 0.42132 | 36095 ft | 433 kts | 267° |
| 2026-04-23 00:28 | 39.53217 | 0.34344 | 36091 ft | 433 kts | 267° |
| 2026-04-23 00:28 | 39.52808 | 0.26574 | 36099 ft | 432 kts | 267° |
| 2026-04-23 00:29 | 39.52395 | 0.18826 | 36097 ft | 430 kts | 267° |
| 2026-04-23 00:29 | 39.51978 | 0.11107 | 36099 ft | 429 kts | 267° |
| 2026-04-23 00:30 | 39.51558 | 0.03417 | 36100 ft | 427 kts | 267° |
| 2026-04-23 00:30 | 39.51136 | -0.04202 | 36096 ft | 426 kts | 267° |
| 2026-04-23 00:31 | 39.50708 | -0.11848 | 36107 ft | 425 kts | 267° |
| 2026-04-23 00:31 | 39.50276 | -0.19485 | 36104 ft | 425 kts | 267° |
| 2026-04-23 00:32 | 39.49839 | -0.27120 | 36105 ft | 425 kts | 266° |
| 2026-04-23 00:32 | 39.49397 | -0.34763 | 36105 ft | 426 kts | 266° |
| 2026-04-23 00:33 | 39.48944 | -0.42419 | 36104 ft | 427 kts | 265° |
| 2026-04-23 00:33 | 39.48387 | -0.46199 | 36097 ft | 429 kts | 254° |
| 2026-04-23 00:33 | 39.47324 | -0.49813 | 36109 ft | 431 kts | 246° |
| 2026-04-23 00:34 | 39.44029 | -0.56334 | 36115 ft | 436 kts | 235° |
| 2026-04-23 00:34 | 39.40299 | -0.62533 | 36104 ft | 437 kts | 234° |
| 2026-04-23 00:35 | 39.36587 | -0.68762 | 36115 ft | 438 kts | 235° |
| 2026-04-23 00:35 | 39.32894 | -0.75027 | 36106 ft | 438 kts | 235° |
| 2026-04-23 00:36 | 39.29201 | -0.81296 | 36109 ft | 439 kts | 235° |
| 2026-04-23 00:36 | 39.25501 | -0.87553 | 36111 ft | 438 kts | 235° |
| 2026-04-23 00:37 | 39.21795 | -0.93796 | 36109 ft | 438 kts | 235° |
| 2026-04-23 00:37 | 39.18070 | -1.00060 | 36114 ft | 438 kts | 235° |
| 2026-04-23 00:38 | 39.14386 | -1.06245 | 36110 ft | 437 kts | 235° |
| 2026-04-23 00:38 | 39.10687 | -1.12447 | 36107 ft | 436 kts | 235° |
| 2026-04-23 00:39 | 39.06990 | -1.18632 | 36106 ft | 436 kts | 235° |
| 2026-04-23 00:39 | 39.03294 | -1.24806 | 36098 ft | 435 kts | 235° |
| 2026-04-23 00:40 | 38.99599 | -1.30969 | 36092 ft | 435 kts | 235° |
| 2026-04-23 00:40 | 38.95930 | -1.37088 | 36093 ft | 435 kts | 235° |
| 2026-04-23 00:41 | 38.92237 | -1.43238 | 36082 ft | 435 kts | 235° |
| 2026-04-23 00:41 | 38.88536 | -1.49389 | 36085 ft | 435 kts | 235° |
| 2026-04-23 00:42 | 38.84829 | -1.55538 | 36067 ft | 436 kts | 234° |
| 2026-04-23 00:42 | 38.81119 | -1.61681 | 36079 ft | 436 kts | 234° |
| 2026-04-23 00:43 | 38.77404 | -1.67821 | 36080 ft | 436 kts | 234° |
| 2026-04-23 00:43 | 38.73678 | -1.73969 | 36079 ft | 437 kts | 234° |
| 2026-04-23 00:44 | 38.69945 | -1.80111 | 36074 ft | 437 kts | 234° |
| 2026-04-23 00:44 | 38.66202 | -1.86249 | 36077 ft | 438 kts | 234° |
| 2026-04-23 00:45 | 38.62454 | -1.92388 | 36078 ft | 437 kts | 234° |
| 2026-04-23 00:45 | 38.58710 | -1.98511 | 36075 ft | 437 kts | 234° |
| 2026-04-23 00:46 | 38.54972 | -2.04616 | 36079 ft | 436 kts | 234° |
| 2026-04-23 00:46 | 38.51235 | -2.10705 | 36079 ft | 435 kts | 234° |
| 2026-04-23 00:47 | 38.47507 | -2.16775 | 36079 ft | 434 kts | 234° |
| 2026-04-23 00:47 | 38.43785 | -2.22831 | 36084 ft | 433 kts | 234° |
| 2026-04-23 00:48 | 38.40068 | -2.28867 | 36075 ft | 432 kts | 234° |
| 2026-04-23 00:48 | 38.36749 | -2.35131 | 36081 ft | 427 kts | 246° |
| 2026-04-23 00:49 | 38.34901 | -2.42271 | 36084 ft | 424 kts | 259° |
| 2026-04-23 00:49 | 38.33768 | -2.49631 | 36077 ft | 423 kts | 260° |
| 2026-04-23 00:50 | 38.32636 | -2.56986 | 36073 ft | 423 kts | 259° |
| 2026-04-23 00:50 | 38.31476 | -2.64329 | 36059 ft | 423 kts | 259° |
| 2026-04-23 00:51 | 38.30299 | -2.71674 | 36050 ft | 423 kts | 259° |
| 2026-04-23 00:51 | 38.29113 | -2.79018 | 36033 ft | 424 kts | 259° |
| 2026-04-23 00:52 | 38.27923 | -2.86362 | 36038 ft | 424 kts | 259° |
| 2026-04-23 00:52 | 38.26728 | -2.93709 | 36036 ft | 424 kts | 259° |
| 2026-04-23 00:53 | 38.25527 | -3.01061 | 36027 ft | 425 kts | 259° |
| 2026-04-23 00:53 | 38.24321 | -3.08415 | 36010 ft | 425 kts | 258° |
| 2026-04-23 00:54 | 38.23110 | -3.15773 | 36019 ft | 425 kts | 258° |
| 2026-04-23 00:54 | 38.21892 | -3.23134 | 36009 ft | 426 kts | 258° |
| 2026-04-23 00:55 | 38.20668 | -3.30507 | 36009 ft | 426 kts | 258° |
| 2026-04-23 00:55 | 38.19439 | -3.37877 | 36000 ft | 427 kts | 258° |
| 2026-04-23 00:56 | 38.18204 | -3.45259 | 35994 ft | 427 kts | 258° |
| 2026-04-23 00:56 | 38.16961 | -3.52656 | 35613 ft | 433 kts | 258° |
| 2026-04-23 00:56 | 38.16332 | -3.56396 | 35076 ft | 432 kts | 258° |
| 2026-04-23 00:57 | 38.15709 | -3.60080 | 34453 ft | 432 kts | 258° |
| 2026-04-23 00:57 | 38.15071 | -3.63813 | 33790 ft | 433 kts | 257° |
| 2026-04-23 00:57 | 38.14344 | -3.67532 | 33030 ft | 434 kts | 255° |
| 2026-04-23 00:57 | 38.13553 | -3.71239 | 32307 ft | 435 kts | 255° |
| 2026-04-23 00:58 | 38.12740 | -3.74939 | 31571 ft | 435 kts | 254° |
| 2026-04-23 00:58 | 38.11927 | -3.78638 | 31025 ft | 432 kts | 254° |
| 2026-04-23 00:58 | 38.11128 | -3.82298 | 30530 ft | 429 kts | 254° |
| 2026-04-23 00:58 | 38.10342 | -3.85933 | 30012 ft | 425 kts | 254° |
| 2026-04-23 00:59 | 38.09567 | -3.89537 | 29431 ft | 421 kts | 254° |
| 2026-04-23 00:59 | 38.08802 | -3.93110 | 28898 ft | 417 kts | 254° |
| 2026-04-23 00:59 | 38.08047 | -3.96635 | 28362 ft | 412 kts | 254° |
| 2026-04-23 00:59 | 38.07300 | -4.00128 | 27871 ft | 408 kts | 254° |
| 2026-04-23 01:00 | 38.06558 | -4.03586 | 27354 ft | 404 kts | 254° |
| 2026-04-23 01:00 | 38.05822 | -4.07015 | 26856 ft | 401 kts | 254° |
| 2026-04-23 01:00 | 38.05092 | -4.10411 | 26360 ft | 397 kts | 254° |
| 2026-04-23 01:00 | 38.04367 | -4.13777 | 25871 ft | 394 kts | 254° |
| 2026-04-23 01:01 | 38.03646 | -4.17119 | 25391 ft | 391 kts | 254° |
| 2026-04-23 01:01 | 38.02928 | -4.20439 | 24894 ft | 389 kts | 254° |
| 2026-04-23 01:01 | 38.02215 | -4.23735 | 24402 ft | 387 kts | 254° |
| 2026-04-23 01:01 | 38.01503 | -4.27020 | 23910 ft | 385 kts | 254° |
| 2026-04-23 01:02 | 38.01033 | -4.29186 | 23574 ft | 385 kts | 254° |
| 2026-04-23 01:02 | 38.00324 | -4.32448 | 23017 ft | 383 kts | 254° |
| 2026-04-23 01:02 | 37.99619 | -4.35688 | 22499 ft | 380 kts | 254° |
| 2026-04-23 01:02 | 37.98920 | -4.38897 | 22007 ft | 376 kts | 254° |
| 2026-04-23 01:03 | 37.98225 | -4.42083 | 21522 ft | 373 kts | 253° |
| 2026-04-23 01:03 | 37.97535 | -4.45242 | 21044 ft | 370 kts | 253° |
| 2026-04-23 01:03 | 37.96850 | -4.48373 | 20578 ft | 368 kts | 253° |
| 2026-04-23 01:03 | 37.96167 | -4.51487 | 20108 ft | 365 kts | 253° |
| 2026-04-23 01:04 | 37.95489 | -4.54577 | 19640 ft | 363 kts | 253° |
| 2026-04-23 01:04 | 37.94814 | -4.57649 | 19191 ft | 361 kts | 253° |
| 2026-04-23 01:04 | 37.93471 | -4.63748 | 18230 ft | 358 kts | 253° |
| 2026-04-23 01:05 | 37.92802 | -4.66780 | 17706 ft | 356 kts | 252° |
| 2026-04-23 01:05 | 37.92138 | -4.69788 | 17214 ft | 353 kts | 252° |
| 2026-04-23 01:05 | 37.91478 | -4.72769 | 16750 ft | 350 kts | 252° |
| 2026-04-23 01:05 | 37.90825 | -4.75721 | 16290 ft | 347 kts | 252° |
| 2026-04-23 01:06 | 37.90175 | -4.78647 | 15837 ft | 343 kts | 252° |
| 2026-04-23 01:06 | 37.89532 | -4.81544 | 15392 ft | 340 kts | 252° |
| 2026-04-23 01:06 | 37.88894 | -4.84415 | 14951 ft | 337 kts | 252° |
| 2026-04-23 01:06 | 37.88261 | -4.87258 | 14517 ft | 334 kts | 252° |
| 2026-04-23 01:07 | 37.87633 | -4.90075 | 14082 ft | 331 kts | 252° |
| 2026-04-23 01:07 | 37.87010 | -4.92868 | 13640 ft | 329 kts | 252° |
| 2026-04-23 01:07 | 37.86390 | -4.95642 | 13166 ft | 326 kts | 252° |
| 2026-04-23 01:07 | 37.85777 | -4.98388 | 12722 ft | 323 kts | 252° |
| 2026-04-23 01:08 | 37.85168 | -5.01105 | 12282 ft | 319 kts | 251° |
| 2026-04-23 01:08 | 37.84564 | -5.03795 | 11851 ft | 316 kts | 251° |
| 2026-04-23 01:08 | 37.83965 | -5.06460 | 11426 ft | 314 kts | 251° |
| 2026-04-23 01:08 | 37.83379 | -5.09069 | 11020 ft | 311 kts | 251° |
| 2026-04-23 01:09 | 37.82790 | -5.11683 | 10763 ft | 304 kts | 251° |
| 2026-04-23 01:09 | 37.82221 | -5.14214 | 10622 ft | 294 kts | 251° |
| 2026-04-23 01:09 | 37.81671 | -5.16659 | 10495 ft | 285 kts | 251° |
| 2026-04-23 01:09 | 37.81136 | -5.19030 | 10372 ft | 276 kts | 251° |
| 2026-04-23 01:10 | 37.80618 | -5.21323 | 10257 ft | 267 kts | 251° |
| 2026-04-23 01:10 | 37.80116 | -5.23542 | 10144 ft | 258 kts | 251° |
| 2026-04-23 01:10 | 37.79629 | -5.25690 | 10040 ft | 250 kts | 251° |
| 2026-04-23 01:10 | 37.79156 | -5.27776 | 9858 ft | 245 kts | 251° |
| 2026-04-23 01:11 | 37.78687 | -5.29842 | 9587 ft | 244 kts | 251° |
| 2026-04-23 01:11 | 37.78220 | -5.31894 | 9315 ft | 242 kts | 250° |
| 2026-04-23 01:11 | 37.77756 | -5.33935 | 9066 ft | 241 kts | 250° |
| 2026-04-23 01:11 | 37.77294 | -5.35965 | 8811 ft | 240 kts | 250° |
| 2026-04-23 01:12 | 37.76817 | -5.37972 | 8549 ft | 236 kts | 244° |
| 2026-04-23 01:12 | 37.75913 | -5.39646 | 8349 ft | 228 kts | 225° |
| 2026-04-23 01:12 | 37.74757 | -5.41019 | 8104 ft | 230 kts | 221° |
| 2026-04-23 01:12 | 37.73538 | -5.42366 | 7855 ft | 237 kts | 220° |
| 2026-04-23 01:13 | 37.72278 | -5.43753 | 7596 ft | 244 kts | 220° |
| 2026-04-23 01:13 | 37.70995 | -5.45175 | 7314 ft | 245 kts | 220° |
| 2026-04-23 01:13 | 37.69716 | -5.46602 | 7035 ft | 245 kts | 220° |
| 2026-04-23 01:13 | 37.68440 | -5.48030 | 6757 ft | 245 kts | 220° |
| 2026-04-23 01:14 | 37.67166 | -5.49456 | 6479 ft | 245 kts | 220° |
| 2026-04-23 01:14 | 37.65894 | -5.50881 | 6196 ft | 244 kts | 219° |
| 2026-04-23 01:14 | 37.64604 | -5.52268 | 5909 ft | 244 kts | 217° |
| 2026-04-23 01:14 | 37.63270 | -5.53585 | 5640 ft | 243 kts | 216° |
| 2026-04-23 01:15 | 37.61932 | -5.54886 | 5372 ft | 242 kts | 215° |
| 2026-04-23 01:15 | 37.60599 | -5.56184 | 5116 ft | 242 kts | 215° |
| 2026-04-23 01:15 | 37.59272 | -5.57477 | 4841 ft | 241 kts | 215° |
| 2026-04-23 01:15 | 37.57949 | -5.58769 | 4635 ft | 241 kts | 217° |
| 2026-04-23 01:16 | 37.56614 | -5.60084 | 4268 ft | 245 kts | 216° |
| 2026-04-23 01:16 | 37.55262 | -5.61393 | 4031 ft | 246 kts | 218° |
| 2026-04-23 01:16 | 37.53912 | -5.62712 | 3761 ft | 245 kts | 218° |
| 2026-04-23 01:16 | 37.52564 | -5.64022 | 3557 ft | 242 kts | 215° |
| 2026-04-23 01:17 | 37.51045 | -5.64833 | 3433 ft | 236 kts | 191° |
| 2026-04-23 01:17 | 37.49446 | -5.65095 | 3326 ft | 228 kts | 192° |
| 2026-04-23 01:17 | 37.47942 | -5.65580 | 3259 ft | 217 kts | 195° |
| 2026-04-23 01:17 | 37.46516 | -5.66048 | 3185 ft | 210 kts | 195° |
| 2026-04-23 01:18 | 37.45133 | -5.66496 | 3108 ft | 199 kts | 195° |
| 2026-04-23 01:18 | 37.43829 | -5.66916 | 3026 ft | 187 kts | 195° |
| 2026-04-23 01:18 | 37.42661 | -5.67482 | 2894 ft | 177 kts | 222° |
| 2026-04-23 01:18 | 37.42165 | -5.68785 | 2866 ft | 171 kts | 265° |
| 2026-04-23 01:19 | 37.42030 | -5.70306 | 2733 ft | 178 kts | 263° |
| 2026-04-23 01:19 | 37.41910 | -5.71868 | 2526 ft | 181 kts | 267° |
| 2026-04-23 01:19 | 37.41871 | -5.73434 | 2306 ft | 178 kts | 269° |
| 2026-04-23 01:19 | 37.41860 | -5.74976 | 2062 ft | 175 kts | 269° |
| 2026-04-23 01:20 | 37.41852 | -5.76485 | 1845 ft | 170 kts | 269° |
| 2026-04-23 01:20 | 37.41845 | -5.77954 | 1613 ft | 166 kts | 269° |
| 2026-04-23 01:20 | 37.41838 | -5.79385 | 1396 ft | 160 kts | 269° |
| 2026-04-23 01:20 | 37.41832 | -5.80724 | 1223 ft | 146 kts | 270° |
| 2026-04-23 01:21 | 37.41824 | -5.81962 | 998 ft | 140 kts | 269° |
| 2026-04-23 01:21 | 37.41806 | -5.83194 | 809 ft | 139 kts | 270° |
| 2026-04-23 01:21 | 37.41803 | -5.84402 | 623 ft | 137 kts | 269° |
| 2026-04-23 01:21 | 37.41800 | -5.85609 | 439 ft | 138 kts | 270° |
| 2026-04-23 01:22 | 37.41799 | -5.86817 | 243 ft | 139 kts | 270° |
| 2026-04-23 01:22 | 37.41796 | -5.88022 | 109 ft | 130 kts | 269° |
| 2026-04-23 01:22 | 37.41796 | -5.88951 | 102 ft | 76 kts | 269° |
| 2026-04-23 01:22 | 37.41794 | -5.89499 | 98 ft | 59 kts | 270° |
| 2026-04-23 01:23 | 37.41808 | -5.89751 | 99 ft | 18 kts | 298° |
| 2026-04-23 01:23 | 37.41904 | -5.89833 | 96 ft | 17 kts | 342° |
| 2026-04-23 01:23 | 37.41942 | -5.89851 | 96 ft | 1 kts | 338° |
| 2026-04-23 01:23 | 37.41957 | -5.89859 | 97 ft | 4 kts | 337° |
| 2026-04-23 01:24 | 37.42009 | -5.89887 | 95 ft | 11 kts | 337° |
| 2026-04-23 01:24 | 37.42083 | -5.89926 | 94 ft | 10 kts | 338° |
| 2026-04-23 01:24 | 37.42136 | -5.89918 | 93 ft | 4 kts | 41° |
| 2026-04-23 01:24 | 37.42146 | -5.89907 | 93 ft | 2 kts | 41° |
| 2026-04-23 01:25 | 37.42162 | -5.89893 | 93 ft | 7 kts | 32° |
| 2026-04-23 01:25 | 37.42202 | -5.89847 | 93 ft | 8 kts | 37° |
| 2026-04-23 01:25 | 37.42240 | -5.89823 | 96 ft | 3 kts | 76° |
| 2026-04-23 01:25 | 37.42221 | -5.89815 | 94 ft | 4 kts | 206° |
| 2026-04-23 01:26 | 37.42187 | -5.89855 | 93 ft | 11 kts | 225° |
| 2026-04-23 01:26 | 37.42130 | -5.89925 | 93 ft | 11 kts | 224° |
| 2026-04-23 01:26 | 37.42113 | -5.89963 | 94 ft | 5 kts | 266° |
| 2026-04-23 01:26 | 37.42135 | -5.90005 | 94 ft | 6 kts | 314° |
| 2026-04-23 01:27 | 37.42153 | -5.90027 | 93 ft | 1 kts | 315° |
| 2026-04-23 01:27 | 37.42154 | -5.90028 | 93 ft | 0 kts | 315° |